Portada
METAR-TAF:

METAR-TAF

Aeroports :

Jammu, Índia

latitud: 32-41-21N, longitud: 74-50-15E, altitud: 314 m

METAR: manca

Hora: 10:22 (04:52 UTC)

Pronòstic

L'informe es va fer fa 25 hores i 22 minuts, a les 03:30 UTC
Pronòstic vàlid del 16 a les 06 UTC al 16 a les 18 UTC
Vent 5 kt del Nord-Est
Visibilitat: 6000 m
Núvols disperses a una alçada de 2000 ft
Cel ennuvolat a una alçada de 9000 ft
Temporalment
l' 16 a les 07 UTC al 16 a les 11 UTC

TAF: VIJU 160330Z 1606/1618 04005KT 6000 SCT020 BKN090 TEMPO 1607/1611 FEW030TCU/CB

Observacions i pronòstics meteorològics de més de 4000 aeroports (METAR i TAF).

Les estacions disponibles són els punts grocs i vermells al mapa.

Posi el ratolí al punt desitjat per veure el nom de l'estació.

Feu clic per veure les observacions i els pronòstics meteorològics.

Per canviar el mapa: feu clic els botons verds amb una creu de color negre per apropar; al botó verd amb un guió per allunyar la imatge; o en les fletxes verdes per a mapes adjacents.


METAR-TAF: